sensor_id;sensor_type;location;lat;lon;timestamp;P1;durP1;ratioP1;P2;durP2;ratioP2
77581;SDS011;66726;52.388;9.986;2023-09-19T00:00:47;3.13;;;1.50;;
77581;SDS011;66726;52.388;9.986;2023-09-19T00:03:18;1.77;;;1.60;;
77581;SDS011;66726;52.388;9.986;2023-09-19T00:05:49;2.93;;;1.70;;
77581;SDS011;66726;52.388;9.986;2023-09-19T00:08:17;4.03;;;1.47;;
77581;SDS011;66726;52.388;9.986;2023-09-19T00:10:49;3.83;;;1.60;;
77581;SDS011;66726;52.388;9.986;2023-09-19T00:13:19;1.70;;;1.50;;
77581;SDS011;66726;52.388;9.986;2023-09-19T00:15:48;1.57;;;1.40;;
77581;SDS011;66726;52.388;9.986;2023-09-19T00:18:18;1.67;;;1.50;;
77581;SDS011;66726;52.388;9.986;2023-09-19T00:20:49;3.67;;;1.60;;
77581;SDS011;66726;52.388;9.986;2023-09-19T00:23:19;2.40;;;1.60;;
77581;SDS011;66726;52.388;9.986;2023-09-19T00:25:47;2.60;;;1.50;;
77581;SDS011;66726;52.388;9.986;2023-09-19T00:28:17;1.60;;;1.50;;
77581;SDS011;66726;52.388;9.986;2023-09-19T00:30:46;1.50;;;1.30;;
77581;SDS011;66726;52.388;9.986;2023-09-19T00:33:18;1.40;;;1.30;;
77581;SDS011;66726;52.388;9.986;2023-09-19T00:35:47;3.30;;;1.57;;
77581;SDS011;66726;52.388;9.986;2023-09-19T00:38:16;2.73;;;1.70;;
77581;SDS011;66726;52.388;9.986;2023-09-19T00:40:47;4.20;;;2.00;;
77581;SDS011;66726;52.388;9.986;2023-09-19T00:43:17;3.53;;;1.90;;
77581;SDS011;66726;52.388;9.986;2023-09-19T00:45:47;3.23;;;2.20;;
77581;SDS011;66726;52.388;9.986;2023-09-19T00:48:19;2.70;;;2.10;;
77581;SDS011;66726;52.388;9.986;2023-09-19T00:50:49;4.40;;;2.40;;
77581;SDS011;66726;52.388;9.986;2023-09-19T00:53:19;2.93;;;2.60;;
77581;SDS011;66726;52.388;9.986;2023-09-19T00:55:50;3.90;;;2.50;;
77581;SDS011;66726;52.388;9.986;2023-09-19T00:58:19;3.53;;;2.30;;
77581;SDS011;66726;52.388;9.986;2023-09-19T01:00:48;4.37;;;2.40;;
77581;SDS011;66726;52.388;9.986;2023-09-19T01:03:18;5.03;;;2.50;;
77581;SDS011;66726;52.388;9.986;2023-09-19T01:05:47;4.43;;;2.80;;
77581;SDS011;66726;52.388;9.986;2023-09-19T01:08:16;5.30;;;2.60;;
77581;SDS011;66726;52.388;9.986;2023-09-19T01:10:46;4.93;;;2.80;;
77581;SDS011;66726;52.388;9.986;2023-09-19T01:13:23;4.13;;;2.60;;
77581;SDS011;66726;52.388;9.986;2023-09-19T01:16:02;4.77;;;3.00;;
77581;SDS011;66726;52.388;9.986;2023-09-19T01:18:43;4.30;;;2.80;;
77581;SDS011;66726;52.388;9.986;2023-09-19T01:21:31;6.80;;;2.80;;
77581;SDS011;66726;52.388;9.986;2023-09-19T01:24:17;6.27;;;2.80;;
77581;SDS011;66726;52.388;9.986;2023-09-19T01:27:06;5.43;;;3.13;;
77581;SDS011;66726;52.388;9.986;2023-09-19T01:30:09;4.30;;;2.90;;
77581;SDS011;66726;52.388;9.986;2023-09-19T01:32:41;4.03;;;2.97;;
77581;SDS011;66726;52.388;9.986;2023-09-19T01:35:12;4.73;;;3.33;;
77581;SDS011;66726;52.388;9.986;2023-09-19T01:37:41;6.37;;;3.63;;
77581;SDS011;66726;52.388;9.986;2023-09-19T01:40:11;5.87;;;3.47;;
77581;SDS011;66726;52.388;9.986;2023-09-19T01:42:44;9.03;;;4.43;;
77581;SDS011;66726;52.388;9.986;2023-09-19T01:45:30;6.80;;;3.47;;
77581;SDS011;66726;52.388;9.986;2023-09-19T01:48:15;6.73;;;3.60;;
77581;SDS011;66726;52.388;9.986;2023-09-19T01:50:55;6.37;;;4.07;;
77581;SDS011;66726;52.388;9.986;2023-09-19T01:53:27;7.20;;;4.43;;
77581;SDS011;66726;52.388;9.986;2023-09-19T01:56:00;7.47;;;4.03;;
77581;SDS011;66726;52.388;9.986;2023-09-19T01:58:33;6.17;;;4.07;;
77581;SDS011;66726;52.388;9.986;2023-09-19T02:01:07;6.87;;;4.07;;
77581;SDS011;66726;52.388;9.986;2023-09-19T02:03:38;8.27;;;4.37;;
77581;SDS011;66726;52.388;9.986;2023-09-19T02:06:13;7.17;;;4.73;;
77581;SDS011;66726;52.388;9.986;2023-09-19T02:08:42;6.67;;;4.10;;
77581;SDS011;66726;52.388;9.986;2023-09-19T02:11:11;5.93;;;4.17;;
77581;SDS011;66726;52.388;9.986;2023-09-19T02:13:40;7.27;;;4.47;;
77581;SDS011;66726;52.388;9.986;2023-09-19T02:16:10;6.73;;;4.27;;
77581;SDS011;66726;52.388;9.986;2023-09-19T02:18:39;8.43;;;4.40;;
77581;SDS011;66726;52.388;9.986;2023-09-19T02:21:08;6.50;;;4.13;;
77581;SDS011;66726;52.388;9.986;2023-09-19T02:23:38;6.47;;;4.40;;
77581;SDS011;66726;52.388;9.986;2023-09-19T02:26:07;7.77;;;4.60;;
77581;SDS011;66726;52.388;9.986;2023-09-19T02:28:38;8.20;;;4.37;;
77581;SDS011;66726;52.388;9.986;2023-09-19T02:31:06;6.80;;;4.70;;
77581;SDS011;66726;52.388;9.986;2023-09-19T02:33:36;7.63;;;4.47;;
77581;SDS011;66726;52.388;9.986;2023-09-19T02:36:05;10.03;;;4.60;;
77581;SDS011;66726;52.388;9.986;2023-09-19T02:38:35;7.60;;;4.30;;
77581;SDS011;66726;52.388;9.986;2023-09-19T02:41:03;14.90;;;4.60;;
77581;SDS011;66726;52.388;9.986;2023-09-19T02:43:32;8.10;;;4.60;;
77581;SDS011;66726;52.388;9.986;2023-09-19T02:46:01;11.33;;;4.97;;
77581;SDS011;66726;52.388;9.986;2023-09-19T02:48:30;11.10;;;4.90;;
77581;SDS011;66726;52.388;9.986;2023-09-19T02:51:02;9.60;;;5.17;;
77581;SDS011;66726;52.388;9.986;2023-09-19T02:53:31;9.73;;;4.40;;
77581;SDS011;66726;52.388;9.986;2023-09-19T02:56:00;7.53;;;5.07;;
77581;SDS011;66726;52.388;9.986;2023-09-19T02:58:30;8.93;;;4.70;;
77581;SDS011;66726;52.388;9.986;2023-09-19T03:01:07;8.93;;;5.20;;
77581;SDS011;66726;52.388;9.986;2023-09-19T03:03:38;7.27;;;4.80;;
77581;SDS011;66726;52.388;9.986;2023-09-19T03:06:08;8.47;;;4.63;;
77581;SDS011;66726;52.388;9.986;2023-09-19T03:08:39;9.57;;;4.73;;
77581;SDS011;66726;52.388;9.986;2023-09-19T03:11:08;7.73;;;4.40;;
77581;SDS011;66726;52.388;9.986;2023-09-19T03:13:39;8.17;;;5.10;;
77581;SDS011;66726;52.388;9.986;2023-09-19T03:16:09;6.60;;;4.50;;
77581;SDS011;66726;52.388;9.986;2023-09-19T03:18:37;9.17;;;4.90;;
77581;SDS011;66726;52.388;9.986;2023-09-19T03:21:06;8.43;;;4.57;;
77581;SDS011;66726;52.388;9.986;2023-09-19T03:23:38;7.37;;;4.70;;
77581;SDS011;66726;52.388;9.986;2023-09-19T03:26:07;9.57;;;4.67;;
77581;SDS011;66726;52.388;9.986;2023-09-19T03:28:36;8.70;;;4.23;;
77581;SDS011;66726;52.388;9.986;2023-09-19T03:31:05;7.07;;;4.10;;
77581;SDS011;66726;52.388;9.986;2023-09-19T03:33:34;10.40;;;3.97;;
77581;SDS011;66726;52.388;9.986;2023-09-19T03:36:04;11.47;;;4.20;;
77581;SDS011;66726;52.388;9.986;2023-09-19T03:38:34;8.90;;;3.97;;
77581;SDS011;66726;52.388;9.986;2023-09-19T03:41:03;10.50;;;4.40;;
77581;SDS011;66726;52.388;9.986;2023-09-19T03:43:32;7.80;;;3.80;;
77581;SDS011;66726;52.388;9.986;2023-09-19T03:46:01;9.57;;;4.27;;
77581;SDS011;66726;52.388;9.986;2023-09-19T03:48:31;8.00;;;4.03;;
77581;SDS011;66726;52.388;9.986;2023-09-19T03:51:00;7.30;;;3.63;;
77581;SDS011;66726;52.388;9.986;2023-09-19T03:53:28;8.30;;;3.90;;
77581;SDS011;66726;52.388;9.986;2023-09-19T03:55:58;8.10;;;3.63;;
77581;SDS011;66726;52.388;9.986;2023-09-19T03:58:27;7.50;;;3.60;;
77581;SDS011;66726;52.388;9.986;2023-09-19T04:00:55;9.73;;;3.90;;
77581;SDS011;66726;52.388;9.986;2023-09-19T04:03:25;10.03;;;4.40;;
77581;SDS011;66726;52.388;9.986;2023-09-19T04:06:01;10.23;;;4.43;;
77581;SDS011;66726;52.388;9.986;2023-09-19T04:08:30;7.00;;;3.57;;
77581;SDS011;66726;52.388;9.986;2023-09-19T04:10:59;10.73;;;4.27;;
77581;SDS011;66726;52.388;9.986;2023-09-19T04:13:28;10.20;;;4.00;;
77581;SDS011;66726;52.388;9.986;2023-09-19T04:15:56;8.90;;;3.53;;
77581;SDS011;66726;52.388;9.986;2023-09-19T04:18:25;6.50;;;3.27;;
77581;SDS011;66726;52.388;9.986;2023-09-19T04:20:54;10.27;;;3.83;;
77581;SDS011;66726;52.388;9.986;2023-09-19T04:23:22;10.90;;;3.80;;
77581;SDS011;66726;52.388;9.986;2023-09-19T04:25:51;9.10;;;4.03;;
77581;SDS011;66726;52.388;9.986;2023-09-19T04:28:21;11.30;;;4.67;;
77581;SDS011;66726;52.388;9.986;2023-09-19T04:30:50;9.13;;;4.03;;
77581;SDS011;66726;52.388;9.986;2023-09-19T04:33:19;11.17;;;4.43;;
77581;SDS011;66726;52.388;9.986;2023-09-19T04:35:48;10.23;;;4.20;;
77581;SDS011;66726;52.388;9.986;2023-09-19T04:38:17;11.13;;;4.17;;
77581;SDS011;66726;52.388;9.986;2023-09-19T04:40:46;11.37;;;4.17;;
77581;SDS011;66726;52.388;9.986;2023-09-19T04:43:15;10.33;;;4.27;;
77581;SDS011;66726;52.388;9.986;2023-09-19T04:45:45;10.33;;;4.00;;
77581;SDS011;66726;52.388;9.986;2023-09-19T04:48:14;8.93;;;3.83;;
77581;SDS011;66726;52.388;9.986;2023-09-19T04:50:42;9.77;;;3.97;;
77581;SDS011;66726;52.388;9.986;2023-09-19T04:53:11;6.63;;;3.77;;
77581;SDS011;66726;52.388;9.986;2023-09-19T04:55:39;7.47;;;4.13;;
77581;SDS011;66726;52.388;9.986;2023-09-19T04:58:08;9.37;;;4.10;;
77581;SDS011;66726;52.388;9.986;2023-09-19T05:00:37;9.73;;;4.70;;
77581;SDS011;66726;52.388;9.986;2023-09-19T05:03:06;12.20;;;4.70;;
77581;SDS011;66726;52.388;9.986;2023-09-19T05:05:35;9.10;;;4.50;;
77581;SDS011;66726;52.388;9.986;2023-09-19T05:08:05;9.00;;;4.43;;
77581;SDS011;66726;52.388;9.986;2023-09-19T05:10:35;12.07;;;4.47;;
77581;SDS011;66726;52.388;9.986;2023-09-19T05:13:05;8.63;;;4.63;;
77581;SDS011;66726;52.388;9.986;2023-09-19T05:15:34;10.83;;;5.20;;
77581;SDS011;66726;52.388;9.986;2023-09-19T05:18:03;12.50;;;5.27;;
77581;SDS011;66726;52.388;9.986;2023-09-19T05:20:34;10.00;;;5.47;;
77581;SDS011;66726;52.388;9.986;2023-09-19T05:23:04;13.57;;;5.87;;
77581;SDS011;66726;52.388;9.986;2023-09-19T05:25:36;8.63;;;5.53;;
77581;SDS011;66726;52.388;9.986;2023-09-19T05:28:06;13.50;;;5.90;;
77581;SDS011;66726;52.388;9.986;2023-09-19T05:30:35;10.77;;;7.07;;
77581;SDS011;66726;52.388;9.986;2023-09-19T05:33:04;9.70;;;5.93;;
77581;SDS011;66726;52.388;9.986;2023-09-19T05:35:35;9.23;;;5.87;;
77581;SDS011;66726;52.388;9.986;2023-09-19T05:38:06;12.03;;;6.23;;
77581;SDS011;66726;52.388;9.986;2023-09-19T05:40:36;9.50;;;6.47;;
77581;SDS011;66726;52.388;9.986;2023-09-19T05:43:05;11.40;;;6.30;;
77581;SDS011;66726;52.388;9.986;2023-09-19T05:45:34;9.20;;;6.20;;
77581;SDS011;66726;52.388;9.986;2023-09-19T05:48:07;10.33;;;6.30;;
77581;SDS011;66726;52.388;9.986;2023-09-19T05:50:39;11.27;;;6.37;;
77581;SDS011;66726;52.388;9.986;2023-09-19T05:53:07;12.43;;;6.00;;
77581;SDS011;66726;52.388;9.986;2023-09-19T05:55:38;10.07;;;5.90;;
77581;SDS011;66726;52.388;9.986;2023-09-19T05:58:07;10.17;;;6.00;;
77581;SDS011;66726;52.388;9.986;2023-09-19T06:00:36;11.13;;;5.63;;
77581;SDS011;66726;52.388;9.986;2023-09-19T06:03:05;12.87;;;6.20;;
77581;SDS011;66726;52.388;9.986;2023-09-19T06:05:34;12.83;;;6.20;;
77581;SDS011;66726;52.388;9.986;2023-09-19T06:08:08;9.97;;;5.80;;
77581;SDS011;66726;52.388;9.986;2023-09-19T06:10:37;10.00;;;6.40;;
77581;SDS011;66726;52.388;9.986;2023-09-19T06:13:05;11.40;;;6.63;;
77581;SDS011;66726;52.388;9.986;2023-09-19T06:15:36;13.43;;;6.00;;
77581;SDS011;66726;52.388;9.986;2023-09-19T06:18:09;8.80;;;6.10;;
77581;SDS011;66726;52.388;9.986;2023-09-19T06:20:41;13.73;;;6.57;;
77581;SDS011;66726;52.388;9.986;2023-09-19T06:23:12;12.97;;;6.63;;
77581;SDS011;66726;52.388;9.986;2023-09-19T06:25:40;13.30;;;6.23;;
77581;SDS011;66726;52.388;9.986;2023-09-19T06:28:10;15.40;;;6.50;;
77581;SDS011;66726;52.388;9.986;2023-09-19T06:30:39;14.07;;;6.67;;
77581;SDS011;66726;52.388;9.986;2023-09-19T06:33:08;12.53;;;6.63;;
77581;SDS011;66726;52.388;9.986;2023-09-19T06:35:41;12.20;;;6.87;;
77581;SDS011;66726;52.388;9.986;2023-09-19T06:38:12;11.00;;;6.17;;
77581;SDS011;66726;52.388;9.986;2023-09-19T06:40:41;11.93;;;6.50;;
77581;SDS011;66726;52.388;9.986;2023-09-19T06:43:10;14.00;;;6.47;;
77581;SDS011;66726;52.388;9.986;2023-09-19T06:45:39;13.73;;;6.33;;
77581;SDS011;66726;52.388;9.986;2023-09-19T06:48:08;16.97;;;5.90;;
77581;SDS011;66726;52.388;9.986;2023-09-19T06:50:38;15.00;;;6.00;;
77581;SDS011;66726;52.388;9.986;2023-09-19T06:53:07;11.07;;;5.10;;
77581;SDS011;66726;52.388;9.986;2023-09-19T06:55:37;13.27;;;5.80;;
77581;SDS011;66726;52.388;9.986;2023-09-19T06:58:06;13.27;;;6.20;;
77581;SDS011;66726;52.388;9.986;2023-09-19T07:00:34;14.77;;;5.40;;
77581;SDS011;66726;52.388;9.986;2023-09-19T07:03:05;15.53;;;5.47;;
77581;SDS011;66726;52.388;9.986;2023-09-19T07:05:38;11.60;;;5.80;;
77581;SDS011;66726;52.388;9.986;2023-09-19T07:08:09;18.33;;;5.67;;
77581;SDS011;66726;52.388;9.986;2023-09-19T07:10:40;16.23;;;5.37;;
77581;SDS011;66726;52.388;9.986;2023-09-19T07:13:11;9.50;;;5.10;;
77581;SDS011;66726;52.388;9.986;2023-09-19T07:15:43;13.37;;;5.30;;
77581;SDS011;66726;52.388;9.986;2023-09-19T07:18:14;10.83;;;5.03;;
77581;SDS011;66726;52.388;9.986;2023-09-19T07:20:43;15.60;;;5.20;;
77581;SDS011;66726;52.388;9.986;2023-09-19T07:23:15;12.13;;;4.40;;
77581;SDS011;66726;52.388;9.986;2023-09-19T07:25:46;11.07;;;4.10;;
77581;SDS011;66726;52.388;9.986;2023-09-19T07:28:15;13.17;;;4.03;;
77581;SDS011;66726;52.388;9.986;2023-09-19T07:30:43;12.60;;;4.07;;
77581;SDS011;66726;52.388;9.986;2023-09-19T07:33:12;12.97;;;3.63;;
77581;SDS011;66726;52.388;9.986;2023-09-19T07:35:44;12.53;;;4.00;;
77581;SDS011;66726;52.388;9.986;2023-09-19T07:38:13;12.87;;;3.70;;
77581;SDS011;66726;52.388;9.986;2023-09-19T07:40:44;14.33;;;3.73;;
77581;SDS011;66726;52.388;9.986;2023-09-19T07:43:13;12.10;;;3.63;;
77581;SDS011;66726;52.388;9.986;2023-09-19T07:45:44;8.90;;;3.27;;
77581;SDS011;66726;52.388;9.986;2023-09-19T07:48:13;10.53;;;3.20;;
77581;SDS011;66726;52.388;9.986;2023-09-19T07:50:42;11.07;;;3.10;;
77581;SDS011;66726;52.388;9.986;2023-09-19T07:53:11;11.80;;;3.00;;
77581;SDS011;66726;52.388;9.986;2023-09-19T07:55:43;10.97;;;2.90;;
77581;SDS011;66726;52.388;9.986;2023-09-19T07:58:14;10.87;;;3.23;;
77581;SDS011;66726;52.388;9.986;2023-09-19T08:00:43;8.23;;;3.00;;
77581;SDS011;66726;52.388;9.986;2023-09-19T08:03:12;11.33;;;3.40;;
77581;SDS011;66726;52.388;9.986;2023-09-19T08:05:43;10.27;;;2.80;;
77581;SDS011;66726;52.388;9.986;2023-09-19T08:08:12;9.67;;;2.93;;
77581;SDS011;66726;52.388;9.986;2023-09-19T08:10:42;10.17;;;3.47;;
77581;SDS011;66726;52.388;9.986;2023-09-19T08:13:14;9.30;;;2.60;;
77581;SDS011;66726;52.388;9.986;2023-09-19T08:15:44;9.43;;;2.93;;
77581;SDS011;66726;52.388;9.986;2023-09-19T08:18:14;9.67;;;2.97;;
77581;SDS011;66726;52.388;9.986;2023-09-19T08:20:43;9.20;;;2.93;;
77581;SDS011;66726;52.388;9.986;2023-09-19T08:23:16;11.83;;;3.40;;
77581;SDS011;66726;52.388;9.986;2023-09-19T08:25:46;8.80;;;2.90;;
77581;SDS011;66726;52.388;9.986;2023-09-19T08:28:16;8.30;;;2.80;;
77581;SDS011;66726;52.388;9.986;2023-09-19T08:30:50;12.73;;;2.97;;
77581;SDS011;66726;52.388;9.986;2023-09-19T08:33:21;13.47;;;3.27;;
77581;SDS011;66726;52.388;9.986;2023-09-19T08:35:49;11.63;;;3.23;;
77581;SDS011;66726;52.388;9.986;2023-09-19T08:38:18;9.57;;;3.43;;
77581;SDS011;66726;52.388;9.986;2023-09-19T08:40:46;9.93;;;3.27;;
77581;SDS011;66726;52.388;9.986;2023-09-19T08:43:17;12.17;;;2.87;;
77581;SDS011;66726;52.388;9.986;2023-09-19T08:45:50;8.03;;;2.90;;
77581;SDS011;66726;52.388;9.986;2023-09-19T08:48:26;7.43;;;2.83;;
77581;SDS011;66726;52.388;9.986;2023-09-19T08:50:56;8.23;;;2.60;;
77581;SDS011;66726;52.388;9.986;2023-09-19T08:53:31;6.47;;;2.90;;
77581;SDS011;66726;52.388;9.986;2023-09-19T08:56:11;8.03;;;2.97;;
77581;SDS011;66726;52.388;9.986;2023-09-19T08:58:44;8.97;;;2.87;;
77581;SDS011;66726;52.388;9.986;2023-09-19T09:01:15;13.07;;;3.67;;
77581;SDS011;66726;52.388;9.986;2023-09-19T09:03:51;10.40;;;2.93;;
77581;SDS011;66726;52.388;9.986;2023-09-19T09:06:20;6.70;;;2.80;;
77581;SDS011;66726;52.388;9.986;2023-09-19T09:08:50;8.83;;;2.57;;
77581;SDS011;66726;52.388;9.986;2023-09-19T09:11:19;8.57;;;3.27;;
77581;SDS011;66726;52.388;9.986;2023-09-19T09:13:50;7.57;;;2.90;;
77581;SDS011;66726;52.388;9.986;2023-09-19T09:16:19;8.73;;;2.60;;
77581;SDS011;66726;52.388;9.986;2023-09-19T09:18:52;8.87;;;2.50;;
77581;SDS011;66726;52.388;9.986;2023-09-19T09:21:21;10.77;;;2.80;;
77581;SDS011;66726;52.388;9.986;2023-09-19T09:23:52;7.33;;;2.77;;
77581;SDS011;66726;52.388;9.986;2023-09-19T09:29:11;7.63;;;2.50;;
77581;SDS011;66726;52.388;9.986;2023-09-19T09:31:46;7.40;;;2.60;;
77581;SDS011;66726;52.388;9.986;2023-09-19T09:34:15;7.23;;;2.83;;
77581;SDS011;66726;52.388;9.986;2023-09-19T09:36:44;9.50;;;2.90;;
77581;SDS011;66726;52.388;9.986;2023-09-19T09:39:28;8.73;;;2.80;;
77581;SDS011;66726;52.388;9.986;2023-09-19T09:41:58;8.13;;;2.73;;
77581;SDS011;66726;52.388;9.986;2023-09-19T09:44:28;10.17;;;3.00;;
77581;SDS011;66726;52.388;9.986;2023-09-19T09:46:58;10.07;;;3.07;;
77581;SDS011;66726;52.388;9.986;2023-09-19T09:49:47;6.97;;;2.47;;
77581;SDS011;66726;52.388;9.986;2023-09-19T09:52:44;7.70;;;2.53;;
77581;SDS011;66726;52.388;9.986;2023-09-19T09:55:13;8.07;;;2.73;;
77581;SDS011;66726;52.388;9.986;2023-09-19T09:57:42;9.33;;;2.27;;
77581;SDS011;66726;52.388;9.986;2023-09-19T10:00:12;8.27;;;2.63;;
77581;SDS011;66726;52.388;9.986;2023-09-19T10:02:46;8.30;;;2.80;;
77581;SDS011;66726;52.388;9.986;2023-09-19T10:05:16;5.70;;;2.10;;
77581;SDS011;66726;52.388;9.986;2023-09-19T10:07:49;8.77;;;2.70;;
77581;SDS011;66726;52.388;9.986;2023-09-19T10:10:32;7.67;;;2.90;;
77581;SDS011;66726;52.388;9.986;2023-09-19T10:13:11;6.33;;;2.67;;
77581;SDS011;66726;52.388;9.986;2023-09-19T10:15:43;8.97;;;2.87;;
77581;SDS011;66726;52.388;9.986;2023-09-19T10:18:18;6.07;;;2.40;;
77581;SDS011;66726;52.388;9.986;2023-09-19T10:20:48;6.83;;;2.90;;
77581;SDS011;66726;52.388;9.986;2023-09-19T10:23:17;7.47;;;2.53;;
77581;SDS011;66726;52.388;9.986;2023-09-19T10:25:49;6.80;;;2.47;;
77581;SDS011;66726;52.388;9.986;2023-09-19T10:28:19;9.03;;;2.90;;
77581;SDS011;66726;52.388;9.986;2023-09-19T10:30:51;8.83;;;2.90;;
77581;SDS011;66726;52.388;9.986;2023-09-19T10:33:21;9.60;;;2.47;;
77581;SDS011;66726;52.388;9.986;2023-09-19T10:35:52;8.60;;;2.57;;
77581;SDS011;66726;52.388;9.986;2023-09-19T10:38:23;10.10;;;2.60;;
77581;SDS011;66726;52.388;9.986;2023-09-19T10:40:55;9.07;;;2.73;;
77581;SDS011;66726;52.388;9.986;2023-09-19T10:43:29;11.27;;;3.00;;
77581;SDS011;66726;52.388;9.986;2023-09-19T10:46:06;8.73;;;3.17;;
77581;SDS011;66726;52.388;9.986;2023-09-19T10:48:37;8.83;;;2.73;;
77581;SDS011;66726;52.388;9.986;2023-09-19T10:51:08;8.23;;;2.60;;
77581;SDS011;66726;52.388;9.986;2023-09-19T10:53:41;7.60;;;2.83;;
77581;SDS011;66726;52.388;9.986;2023-09-19T10:56:16;7.10;;;2.73;;
77581;SDS011;66726;52.388;9.986;2023-09-19T10:58:51;4.93;;;2.70;;
77581;SDS011;66726;52.388;9.986;2023-09-19T11:01:21;9.40;;;3.17;;
77581;SDS011;66726;52.388;9.986;2023-09-19T11:03:51;6.57;;;2.67;;
77581;SDS011;66726;52.388;9.986;2023-09-19T11:07:02;7.47;;;3.20;;
77581;SDS011;66726;52.388;9.986;2023-09-19T11:09:44;8.23;;;2.77;;
77581;SDS011;66726;52.388;9.986;2023-09-19T11:18:53;7.60;;;2.40;;
77581;SDS011;66726;52.388;9.986;2023-09-19T11:24:31;10.20;;;2.77;;
77581;SDS011;66726;52.388;9.986;2023-09-19T11:27:13;9.17;;;3.10;;
77581;SDS011;66726;52.388;9.986;2023-09-19T11:29:44;10.30;;;3.47;;
77581;SDS011;66726;52.388;9.986;2023-09-19T11:32:13;10.90;;;3.17;;
77581;SDS011;66726;52.388;9.986;2023-09-19T11:34:44;10.07;;;2.77;;
77581;SDS011;66726;52.388;9.986;2023-09-19T11:40:46;7.53;;;2.67;;
77581;SDS011;66726;52.388;9.986;2023-09-19T11:43:35;9.33;;;3.00;;
77581;SDS011;66726;52.388;9.986;2023-09-19T11:46:07;7.93;;;2.70;;
77581;SDS011;66726;52.388;9.986;2023-09-19T11:48:40;8.10;;;3.03;;
77581;SDS011;66726;52.388;9.986;2023-09-19T11:51:10;6.07;;;2.50;;
77581;SDS011;66726;52.388;9.986;2023-09-19T11:53:45;7.90;;;3.00;;
77581;SDS011;66726;52.388;9.986;2023-09-19T11:56:17;6.87;;;2.90;;
77581;SDS011;66726;52.388;9.986;2023-09-19T11:58:48;8.77;;;3.03;;
77581;SDS011;66726;52.388;9.986;2023-09-19T12:01:23;6.50;;;2.87;;
77581;SDS011;66726;52.388;9.986;2023-09-19T12:03:56;8.47;;;3.00;;
77581;SDS011;66726;52.388;9.986;2023-09-19T12:06:26;5.90;;;2.87;;
77581;SDS011;66726;52.388;9.986;2023-09-19T12:08:56;8.03;;;2.90;;
77581;SDS011;66726;52.388;9.986;2023-09-19T12:11:29;7.87;;;2.90;;
77581;SDS011;66726;52.388;9.986;2023-09-19T12:14:01;8.23;;;2.67;;
77581;SDS011;66726;52.388;9.986;2023-09-19T12:16:30;7.30;;;2.73;;
77581;SDS011;66726;52.388;9.986;2023-09-19T12:21:55;9.37;;;3.00;;
77581;SDS011;66726;52.388;9.986;2023-09-19T12:24:26;7.43;;;2.73;;
77581;SDS011;66726;52.388;9.986;2023-09-19T12:27:01;7.83;;;2.97;;
77581;SDS011;66726;52.388;9.986;2023-09-19T12:29:32;7.13;;;2.30;;
77581;SDS011;66726;52.388;9.986;2023-09-19T12:32:10;9.27;;;3.10;;
77581;SDS011;66726;52.388;9.986;2023-09-19T12:34:41;11.17;;;3.17;;
77581;SDS011;66726;52.388;9.986;2023-09-19T12:37:11;9.40;;;2.63;;
77581;SDS011;66726;52.388;9.986;2023-09-19T12:39:42;6.73;;;2.80;;
77581;SDS011;66726;52.388;9.986;2023-09-19T12:42:16;10.77;;;3.10;;
77581;SDS011;66726;52.388;9.986;2023-09-19T12:44:47;7.87;;;3.00;;
77581;SDS011;66726;52.388;9.986;2023-09-19T12:47:21;7.03;;;3.17;;
77581;SDS011;66726;52.388;9.986;2023-09-19T12:50:06;7.07;;;3.07;;
77581;SDS011;66726;52.388;9.986;2023-09-19T12:52:41;10.00;;;2.90;;
77581;SDS011;66726;52.388;9.986;2023-09-19T12:55:20;7.00;;;2.70;;
77581;SDS011;66726;52.388;9.986;2023-09-19T12:58:00;8.37;;;3.23;;
77581;SDS011;66726;52.388;9.986;2023-09-19T13:00:36;7.30;;;3.17;;
77581;SDS011;66726;52.388;9.986;2023-09-19T13:03:14;8.30;;;2.80;;
77581;SDS011;66726;52.388;9.986;2023-09-19T13:05:49;8.40;;;3.40;;
77581;SDS011;66726;52.388;9.986;2023-09-19T13:08:20;6.27;;;2.90;;
77581;SDS011;66726;52.388;9.986;2023-09-19T13:10:59;6.63;;;2.87;;
77581;SDS011;66726;52.388;9.986;2023-09-19T13:13:38;6.33;;;2.63;;
77581;SDS011;66726;52.388;9.986;2023-09-19T13:16:11;8.83;;;3.00;;
77581;SDS011;66726;52.388;9.986;2023-09-19T13:18:46;8.83;;;3.17;;
77581;SDS011;66726;52.388;9.986;2023-09-19T13:21:26;6.07;;;2.67;;
77581;SDS011;66726;52.388;9.986;2023-09-19T13:24:17;5.93;;;2.93;;
77581;SDS011;66726;52.388;9.986;2023-09-19T13:26:46;8.57;;;2.60;;
77581;SDS011;66726;52.388;9.986;2023-09-19T13:29:16;6.90;;;2.60;;
77581;SDS011;66726;52.388;9.986;2023-09-19T13:31:47;8.53;;;2.80;;
77581;SDS011;66726;52.388;9.986;2023-09-19T13:34:17;8.60;;;3.23;;
77581;SDS011;66726;52.388;9.986;2023-09-19T13:36:46;9.57;;;3.40;;
77581;SDS011;66726;52.388;9.986;2023-09-19T13:39:15;7.63;;;3.30;;
77581;SDS011;66726;52.388;9.986;2023-09-19T13:41:44;7.17;;;3.17;;
77581;SDS011;66726;52.388;9.986;2023-09-19T13:44:15;6.13;;;2.70;;
77581;SDS011;66726;52.388;9.986;2023-09-19T13:46:44;8.00;;;2.70;;
77581;SDS011;66726;52.388;9.986;2023-09-19T13:49:13;6.33;;;3.00;;
77581;SDS011;66726;52.388;9.986;2023-09-19T13:51:46;12.03;;;3.67;;
77581;SDS011;66726;52.388;9.986;2023-09-19T13:54:14;6.70;;;2.80;;
77581;SDS011;66726;52.388;9.986;2023-09-19T13:56:43;9.20;;;2.83;;
77581;SDS011;66726;52.388;9.986;2023-09-19T13:59:11;7.00;;;2.70;;
77581;SDS011;66726;52.388;9.986;2023-09-19T14:01:41;8.47;;;3.37;;
77581;SDS011;66726;52.388;9.986;2023-09-19T14:04:10;7.30;;;3.40;;
77581;SDS011;66726;52.388;9.986;2023-09-19T14:06:41;6.00;;;2.70;;
77581;SDS011;66726;52.388;9.986;2023-09-19T14:09:09;7.70;;;2.70;;
77581;SDS011;66726;52.388;9.986;2023-09-19T14:11:39;8.93;;;3.30;;
77581;SDS011;66726;52.388;9.986;2023-09-19T14:14:08;7.20;;;2.90;;
77581;SDS011;66726;52.388;9.986;2023-09-19T14:16:37;8.70;;;2.80;;
77581;SDS011;66726;52.388;9.986;2023-09-19T14:19:09;9.17;;;3.13;;
77581;SDS011;66726;52.388;9.986;2023-09-19T14:21:38;11.67;;;3.37;;
77581;SDS011;66726;52.388;9.986;2023-09-19T14:24:06;6.40;;;3.00;;
77581;SDS011;66726;52.388;9.986;2023-09-19T14:26:36;10.60;;;3.37;;
77581;SDS011;66726;52.388;9.986;2023-09-19T14:29:04;6.67;;;2.83;;
77581;SDS011;66726;52.388;9.986;2023-09-19T14:31:36;6.77;;;2.60;;
77581;SDS011;66726;52.388;9.986;2023-09-19T14:34:06;7.93;;;2.87;;
77581;SDS011;66726;52.388;9.986;2023-09-19T14:36:38;9.47;;;3.30;;
77581;SDS011;66726;52.388;9.986;2023-09-19T14:39:06;8.03;;;3.17;;
77581;SDS011;66726;52.388;9.986;2023-09-19T14:41:35;9.83;;;3.37;;
77581;SDS011;66726;52.388;9.986;2023-09-19T14:44:04;7.63;;;3.20;;
77581;SDS011;66726;52.388;9.986;2023-09-19T14:46:32;6.90;;;2.67;;
77581;SDS011;66726;52.388;9.986;2023-09-19T14:49:03;7.50;;;2.63;;
77581;SDS011;66726;52.388;9.986;2023-09-19T14:51:32;7.27;;;2.70;;
77581;SDS011;66726;52.388;9.986;2023-09-19T14:54:03;6.57;;;2.60;;
77581;SDS011;66726;52.388;9.986;2023-09-19T14:56:33;7.53;;;3.10;;
77581;SDS011;66726;52.388;9.986;2023-09-19T14:59:02;5.73;;;2.77;;
77581;SDS011;66726;52.388;9.986;2023-09-19T15:01:30;14.93;;;4.70;;
77581;SDS011;66726;52.388;9.986;2023-09-19T15:03:59;8.10;;;2.80;;
77581;SDS011;66726;52.388;9.986;2023-09-19T15:06:28;4.60;;;2.70;;
77581;SDS011;66726;52.388;9.986;2023-09-19T15:08:57;6.80;;;2.80;;
77581;SDS011;66726;52.388;9.986;2023-09-19T15:11:27;6.23;;;2.60;;
77581;SDS011;66726;52.388;9.986;2023-09-19T15:13:55;6.50;;;2.67;;
77581;SDS011;66726;52.388;9.986;2023-09-19T15:16:25;6.87;;;3.23;;
77581;SDS011;66726;52.388;9.986;2023-09-19T15:18:53;4.03;;;2.30;;
77581;SDS011;66726;52.388;9.986;2023-09-19T15:21:22;5.13;;;2.87;;
77581;SDS011;66726;52.388;9.986;2023-09-19T15:23:50;7.60;;;2.60;;
77581;SDS011;66726;52.388;9.986;2023-09-19T15:26:19;5.53;;;2.73;;